tititudorancea.com
Station Historical Data
Daily Summary for July 31, 2018 Units:  Metric    English   Both
« Previous Day
Next Day »
Daily Weekly Monthly Yearly Custom
  High: Low: Average:
Temperature: -17.8 °C 6.8 °C 9.3 °C
Dew Point: -17.8 °C 4.1 °C 6.4 °C
Humidity: Humidity % 68 % 82 %
Wind Speed: 0 km/h 0 km/h 20.1 km/h
Wind Gust: 0 km/h - -
Wind:- - NW
Pressure: 0 hPa 1007.7 hPa -
Precipitation: 5.33 mm    
Historical Graphs
 
 
Ararat weather Find more about Weather in Ararat, AU


 



 


Tabular Data for July 31, 2018
Time Temperature Dew Point Pressure Wind Wind Speed Wind Gust Humidity Rainfall Rate (Hourly)
-17.8 °C -17.8 °C 0 hPa Calm     Humidity % 0 mm
00:04 9.4 °C 5.1 °C 1009 hPa North 25.9 km/h 14.8 km/h 74 % 0 mm
00:09 9.5 °C 5.1 °C 1009 hPa North 18.5 km/h 16.7 km/h 74 % 0 mm
00:14 9.5 °C 5.3 °C 1009 hPa NNW 27.8 km/h 22.5 km/h 75 % 0 mm
00:19 9.6 °C 5.3 °C 1009.4 hPa NNE 24.1 km/h 16.9 km/h 75 % 0 mm
00:24 9.4 °C 5.4 °C 1009.4 hPa North 22.2 km/h 17.1 km/h 76 % 0 mm
00:29 9.2 °C 5.4 °C 1009.4 hPa North 17.7 km/h 16.1 km/h 77 % 0 mm
00:34 9.1 °C 5.4 °C 1009.4 hPa NW 24.1 km/h 16.6 km/h 78 % 0 mm
00:39 8.9 °C 5.5 °C 1009.4 hPa North 22.2 km/h 13.4 km/h 79 % 0 mm
00:44 8.9 °C 5.6 °C 1009 hPa North 22.2 km/h 15.3 km/h 80 % 0 mm
00:49 8.9 °C 5.8 °C 1009 hPa North 18.5 km/h 13 km/h 81 % 0.25 mm
00:54 8.8 °C 5.7 °C 1009 hPa NW 16.7 km/h 11.4 km/h 81 % 0.25 mm
00:59 8.8 °C 5.7 °C 1009.4 hPa North 16.1 km/h 11.3 km/h 81 % 0.25 mm
01:04 8.8 °C 5.7 °C 1009 hPa NW 16.7 km/h 16.1 km/h 81 % 0.25 mm
01:09 8.9 °C 5.8 °C 1009 hPa NW 18.5 km/h 10.5 km/h 81 % 0.25 mm
01:14 9 °C 5.9 °C 1009.4 hPa NW 11.1 km/h 7.2 km/h 81 % 0.25 mm
01:19 9 °C 6.1 °C 1009.4 hPa North 16.1 km/h 13 km/h 82 % 0.25 mm
01:24 9.1 °C 6.4 °C 1009 hPa NNW 18.5 km/h 14.6 km/h 83 % 0.25 mm
01:29 8.9 °C 6.4 °C 1009 hPa North 20.4 km/h 14.6 km/h 84 % 0.51 mm
01:34 8.8 °C 6.4 °C 1009 hPa NW 29.6 km/h 17.7 km/h 85 % 0.51 mm
01:39 8.8 °C 6.4 °C 1009 hPa NW 29.6 km/h 14 km/h 85 % 0.51 mm
01:44 8.8 °C 6.4 °C 1009 hPa NNW 18.5 km/h 12.6 km/h 85 % 0.51 mm
01:49 8.7 °C 6.5 °C 1009 hPa NW 19.3 km/h 12.9 km/h 86 % 0.25 mm
01:54 8.8 °C 6.6 °C 1009 hPa NW 20.4 km/h 15.4 km/h 86 % 0.25 mm
01:59 8.8 °C 6.6 °C 1009 hPa North 17.7 km/h 15.4 km/h 86 % 0.25 mm
02:04 8.9 °C 6.5 °C 1009 hPa NW 27.8 km/h 15.1 km/h 85 % 0.25 mm
02:09 8.9 °C 6.6 °C 1009.4 hPa North 18.5 km/h 9.2 km/h 85 % 0.25 mm
02:14 8.9 °C 6.5 °C 1009 hPa NW 9.3 km/h 7.9 km/h 85 % 0.25 mm
02:19 8.9 °C 6.4 °C 1009.4 hPa NW 25.7 km/h 14.6 km/h 84 % 0.25 mm
02:24 9.1 °C 6.3 °C 1009.4 hPa NW 14.8 km/h 8.2 km/h 83 % 0.25 mm
02:29 9.1 °C 6.3 °C 1009.4 hPa North 18.5 km/h 10.6 km/h 83 % 0 mm
02:34 9.1 °C 6.3 °C 1009.4 hPa North 16.7 km/h 14.3 km/h 83 % 0 mm
02:39 9 °C 6.3 °C 1009.4 hPa NW 11.3 km/h 8.2 km/h 83 % 0 mm
02:44 9 °C 6.3 °C 1009 hPa NW 18.5 km/h 13.4 km/h 83 % 0 mm
02:49 9.1 °C 6.3 °C 1009 hPa North 18.5 km/h 12.4 km/h 83 % 0 mm
02:54 9.1 °C 6.2 °C 1009 hPa North 16.7 km/h 11.7 km/h 82 % 0 mm
02:59 9.2 °C 6.3 °C 1009 hPa North 24.1 km/h 16.6 km/h 82 % 0 mm
03:04 9.3 °C 6.2 °C 1009 hPa NNW 13 km/h 8 km/h 81 % 0 mm
03:09 8.9 °C 6.1 °C 1009 hPa NNW 11.1 km/h 8.7 km/h 82 % 0 mm
03:14 8.6 °C 6.1 °C 1009 hPa North 13 km/h 6.6 km/h 84 % 0 mm
03:19 8.3 °C 5.9 °C 1009.4 hPa North 11.1 km/h 5.6 km/h 85 % 0.25 mm
03:24 8.1 °C 5.9 °C 1009 hPa NNW 11.1 km/h 8 km/h 86 % 0.25 mm
03:29 7.9 °C 5.7 °C 1009 hPa North 8 km/h 7.1 km/h 86 % 0.25 mm
03:34 7.8 °C 5.7 °C 1009 hPa North 9.3 km/h 7.9 km/h 87 % 0.25 mm
03:39 7.7 °C 5.7 °C 1009 hPa North 13 km/h 7.6 km/h 87 % 0.25 mm
03:44 7.7 °C 5.8 °C 1009 hPa North 9.3 km/h 6 km/h 88 % 0.25 mm
03:49 7.7 °C 5.8 °C 1009 hPa North 13 km/h 7.2 km/h 88 % 0.25 mm
03:54 7.8 °C 5.9 °C 1009 hPa North 14.8 km/h 4.7 km/h 88 % 0.25 mm
03:59 7.8 °C 5.9 °C 1009 hPa North 11.1 km/h 6.9 km/h 88 % 0.25 mm
04:04 7.7 °C 6 °C 1009.4 hPa North 5.6 km/h 4.2 km/h 89 % 0.25 mm
04:09 7.8 °C 6.1 °C 1009.4 hPa North 11.1 km/h 3.9 km/h 89 % 0.25 mm
04:14 7.8 °C 6.1 °C 1009.4 hPa NNE 9.3 km/h 6.8 km/h 89 % 0.25 mm
04:19 7.9 °C 6.2 °C 1009.4 hPa NNE 6.4 km/h 5.1 km/h 89 % 0 mm
04:24 7.9 °C 6.2 °C 1009.4 hPa NNE 16.7 km/h 5.8 km/h 89 % 0 mm
04:29 8.1 °C 6.3 °C 1009.4 hPa NNE 9.3 km/h 7.4 km/h 89 % 0 mm
04:34 8.2 °C 6.3 °C 1009.4 hPa NNE 11.1 km/h 8.7 km/h 88 % 0 mm
04:39 8.3 °C 6.4 °C 1009.7 hPa NNE 11.3 km/h 4.3 km/h 88 % 0 mm
04:44 8.3 °C 6.4 °C 1009.4 hPa NNE 9.7 km/h 7.1 km/h 88 % 0 mm
04:49 8.4 °C 6.5 °C 1009.7 hPa NNE 11.1 km/h 9 km/h 88 % 0 mm
04:54 8.5 °C 6.4 °C 1009.7 hPa North 16.7 km/h 12.6 km/h 87 % 0 mm
04:59 8.6 °C 6.5 °C 1009.7 hPa North 13 km/h 8.7 km/h 87 % 0 mm
05:04 8.6 °C 6.5 °C 1009.7 hPa North 13 km/h 7.9 km/h 87 % 0 mm
05:09 8.6 °C 6.5 °C 1009.7 hPa North 13 km/h 8.2 km/h 87 % 0 mm
05:14 8.5 °C 6.3 °C 1009.7 hPa NNW 13 km/h 10.6 km/h 86 % 0 mm
05:19 8.4 °C 6.3 °C 1009.7 hPa NW 18.5 km/h 12.6 km/h 87 % 0 mm
05:24 8.3 °C 6.3 °C 1009.7 hPa NW 13 km/h 13.4 km/h 87 % 0 mm
05:29 8.3 °C 6.2 °C 1009.7 hPa NW 20.4 km/h 13.2 km/h 87 % 0 mm
05:34 8.2 °C 6.2 °C 1009.7 hPa North 18.5 km/h 16.9 km/h 87 % 0 mm
05:39 8.2 °C 6.2 °C 1009.7 hPa NW 18.5 km/h 13 km/h 87 % 0 mm
05:44 8.2 °C 6.3 °C 1009.7 hPa NW 14.8 km/h 14.6 km/h 88 % 0 mm
05:49 8.2 °C 6.3 °C 1009.7 hPa NW 20.4 km/h 14.2 km/h 88 % 0 mm
05:54 8.2 °C 6.1 °C 1009.7 hPa WNW 20.9 km/h 13 km/h 87 % 0 mm
05:59 8.1 °C 6.1 °C 1009.7 hPa North 16.7 km/h 13.4 km/h 87 % 0 mm
06:04 8.2 °C 6.1 °C 1010 hPa WNW 20.4 km/h 15.6 km/h 87 % 0 mm
06:09 8.1 °C 6.1 °C 1010 hPa North 18.5 km/h 11.9 km/h 87 % 0 mm
06:14 8.1 °C 6 °C 1010 hPa NW 18.5 km/h 13.7 km/h 87 % 0 mm
06:19 8.1 °C 6.1 °C 1010 hPa NW 18.5 km/h 13.5 km/h 87 % 0 mm
06:24 8.1 °C 6.1 °C 1010 hPa North 11.3 km/h 10.8 km/h 87 % 0 mm
06:29 7.9 °C 5.8 °C 1010 hPa North 13 km/h 10 km/h 87 % 0 mm
06:34 7.6 °C 5.7 °C 1010 hPa NW 14.8 km/h 10.9 km/h 88 % 0 mm
06:39 7.3 °C 5.7 °C 1010 hPa NW 14.8 km/h 10 km/h 89 % 0 mm
06:44 7.2 °C 5.6 °C 1010 hPa NW 13 km/h 7.4 km/h 90 % 0 mm
06:49 6.9 °C 5.4 °C 1010 hPa NW 9.7 km/h 6.3 km/h 90 % 0 mm
06:54 6.8 °C 5.4 °C 1010.4 hPa NW 11.3 km/h 7.9 km/h 91 % 0 mm
06:59 6.8 °C 5.4 °C 1010.4 hPa NW 5.6 km/h 5.5 km/h 91 % 0 mm
07:04 6.8 °C 5.6 °C 1010.4 hPa NW 9.3 km/h 5.1 km/h 92 % 0 mm
07:09 6.8 °C 5.6 °C 1010.4 hPa North 5.6 km/h 3.7 km/h 92 % 0 mm
07:14 6.8 °C 5.6 °C 1010.4 hPa NW 9.3 km/h 4.3 km/h 92 % 0 mm
07:19 6.8 °C 5.6 °C 1010.4 hPa NW 8 km/h 5 km/h 92 % 0 mm
07:24 6.9 °C 5.7 °C 1010.4 hPa North 6.4 km/h 4.8 km/h 92 % 0 mm
07:29 6.9 °C 5.9 °C 1010.4 hPa North 11.1 km/h 5.5 km/h 93 % 0 mm
07:34 7 °C 5.9 °C 1010.4 hPa NW 8 km/h 8.2 km/h 93 % 0 mm
07:39 7 °C 5.9 °C 1010.7 hPa North 13 km/h 6.9 km/h 93 % 0 mm
07:44 7.1 °C 6 °C 1010.7 hPa NNW 9.3 km/h 6.3 km/h 93 % 0 mm
07:49 7.2 °C 6.1 °C 1010.7 hPa NNW 16.7 km/h 10 km/h 93 % 0 mm
07:54 7.3 °C 6.4 °C 1011.1 hPa North 16.7 km/h 8.4 km/h 94 % 0 mm
07:59 7.4 °C 6.5 °C 1011.1 hPa NNW 11.1 km/h 8.5 km/h 94 % 0 mm
08:04 7.4 °C 6.6 °C 1010.7 hPa NNW 14.8 km/h 8.7 km/h 94 % 0 mm
08:09 7.5 °C 6.6 °C 1010.7 hPa North 14.8 km/h 7.7 km/h 94 % 0 mm
08:14 7.6 °C 6.7 °C 1011.1 hPa North 22.2 km/h 10.6 km/h 94 % 0 mm
08:19 7.6 °C 6.7 °C 1011.1 hPa North 14.8 km/h 10.6 km/h 94 % 0 mm
08:24 7.7 °C 6.8 °C 1011.1 hPa NNW 22.2 km/h 10.1 km/h 94 % 0 mm
08:29 7.7 °C 6.8 °C 1011.1 hPa North 18.5 km/h 11.6 km/h 94 % 0 mm
08:34 7.7 °C 6.8 °C 1011.1 hPa North 16.7 km/h 12.4 km/h 94 % 0 mm
08:39 7.7 °C 6.8 °C 1010.7 hPa North 13 km/h 11.3 km/h 94 % 0 mm
08:44 7.8 °C 6.9 °C 1011.1 hPa North 16.7 km/h 16.7 km/h 94 % 0 mm
08:49 7.9 °C 6.8 °C 1010.7 hPa North 18.5 km/h 12.1 km/h 93 % 0 mm
08:54 8 °C 6.9 °C 1010.7 hPa NNW 18.5 km/h 12.6 km/h 93 % 0 mm
08:59 8 °C 6.9 °C 1010.7 hPa North 18.5 km/h 9.8 km/h 93 % 0 mm
09:04 8.1 °C 6.8 °C 1010.7 hPa North 20.4 km/h 13.2 km/h 92 % 0 mm
09:09 8.2 °C 7 °C 1010.7 hPa NNW 18.5 km/h 12.2 km/h 92 % 0 mm
09:14 8.2 °C 7 °C 1010.7 hPa NNW 18.5 km/h 11.6 km/h 92 % 0 mm
09:19 8.2 °C 6.8 °C 1010.7 hPa NNW 18.5 km/h 16.6 km/h 91 % 0 mm
09:24 8.2 °C 6.8 °C 1010.7 hPa NNW 17.7 km/h 13.5 km/h 91 % 0 mm
09:29 8.3 °C 6.9 °C 1010.7 hPa North 18.5 km/h 11.7 km/h 91 % 0 mm
09:34 8.3 °C 6.9 °C 1010.7 hPa North 18.5 km/h 17.5 km/h 91 % 0 mm
09:39 8.5 °C 7.1 °C 1010.7 hPa NNW 11.1 km/h 9 km/h 91 % 0 mm
09:44 8.6 °C 7.2 °C 1010.7 hPa North 25.9 km/h 17.1 km/h 91 % 0 mm
09:49 8.6 °C 7.2 °C 1010.7 hPa NNW 18.5 km/h 13.2 km/h 91 % 0 mm
09:54 8.8 °C 7.4 °C 1010.7 hPa North 16.7 km/h 12.2 km/h 91 % 0 mm
09:59 8.7 °C 7.2 °C 1010.7 hPa NNW 31.5 km/h 15.3 km/h 90 % 0 mm
10:04 8.7 °C 7.2 °C 1010.7 hPa North 22.2 km/h 14.3 km/h 90 % 0 mm
10:09 8.9 °C 7.3 °C 1010.7 hPa North 29.6 km/h 14.8 km/h 90 % 0 mm
10:14 8.9 °C 7.3 °C 1010.7 hPa NW 20.4 km/h 12.2 km/h 90 % 0 mm
10:19 9 °C 7.3 °C 1010.7 hPa NW 20.4 km/h 13.4 km/h 89 % 0 mm
10:24 9.2 °C 7.4 °C 1010.7 hPa North 20.4 km/h 14.6 km/h 89 % 0 mm
10:29 9.3 °C 7.4 °C 1010.7 hPa North 18.5 km/h 13 km/h 88 % 0 mm
10:34 9.6 °C 7.5 °C 1010.7 hPa NW 25.9 km/h 19.3 km/h 87 % 0 mm
10:39 9.7 °C 7.5 °C 1010.4 hPa NW 27.8 km/h 16.6 km/h 86 % 0 mm
10:44 10 °C 7.6 °C 1010.4 hPa NW 20.9 km/h 21.1 km/h 85 % 0 mm
10:49 10.2 °C 7.6 °C 1010.4 hPa NNW 24.1 km/h 16.3 km/h 84 % 0 mm
10:54 10.3 °C 7.4 °C 1010.4 hPa North 27.8 km/h 20.6 km/h 82 % 0 mm
10:59 10.3 °C 7.2 °C 1010.4 hPa NNW 27.8 km/h 22.4 km/h 81 % 0 mm
11:04 10 °C 7.1 °C 1010.4 hPa NNW 22.2 km/h 16.9 km/h 82 % 0 mm
11:09 9.4 °C 7.2 °C 1010.4 hPa NW 27.8 km/h 19.6 km/h 86 % 0 mm
11:14 9.2 °C 7.3 °C 1010.4 hPa North 25.9 km/h 18.8 km/h 88 % 0 mm
11:19 9.3 °C 7.6 °C 1010.4 hPa North 25.7 km/h 20.3 km/h 89 % 0 mm
11:24 9.2 °C 7.3 °C 1010.4 hPa NW 33.3 km/h 26.2 km/h 88 % 0 mm
11:29 9.4 °C 7.7 °C 1010 hPa NW 38.9 km/h 27.4 km/h 89 % 0 mm
11:34 9.6 °C 8.1 °C 1010 hPa NW 35.2 km/h 24.8 km/h 90 % 0 mm
11:39 9.6 °C 7.8 °C 1010 hPa NW 33.3 km/h 17.5 km/h 89 % 0 mm
11:44 9.8 °C 8.2 °C 1010 hPa North 27.8 km/h 20.1 km/h 90 % 0 mm
11:49 9.9 °C 8.2 °C 1009.7 hPa North 33.3 km/h 20.1 km/h 89 % 0 mm
11:54 10.2 °C 8.3 °C 1009.7 hPa North 38.9 km/h 23.7 km/h 88 % 0 mm
11:59 10.4 °C 8.3 °C 1009.7 hPa North 31.5 km/h 23.2 km/h 87 % 0 mm
12:04 10.5 °C 8.3 °C 1009.7 hPa NW 18.5 km/h 13.5 km/h 86 % 0 mm
12:09 10.6 °C 8.4 °C 1009.7 hPa North 31.5 km/h 17.1 km/h 86 % 0 mm
12:14 10.7 °C 8.2 °C 1009.7 hPa NW 27.8 km/h 21.2 km/h 85 % 0 mm
12:19 10.7 °C 8.4 °C 1009.7 hPa NNW 27.4 km/h 17.2 km/h 86 % 0 mm
12:24 10.6 °C 8.3 °C 1009.7 hPa NW 27.8 km/h 18 km/h 86 % 0 mm
12:29 10.6 °C 8.4 °C 1009.7 hPa NW 18.5 km/h 19 km/h 86 % 0 mm
12:34 10.7 °C 8.2 °C 1009.4 hPa North 18.5 km/h 12.1 km/h 85 % 0 mm
12:39 10.7 °C 8.3 °C 1009.4 hPa North 25.9 km/h 13.2 km/h 85 % 0 mm
12:44 10.7 °C 8.2 °C 1009.4 hPa North 25.9 km/h 14.2 km/h 85 % 0 mm
12:49 10.7 °C 8.3 °C 1009 hPa NNW 22.2 km/h 16.3 km/h 85 % 0 mm
12:54 11.2 °C 8.6 °C 1009 hPa North 25.7 km/h 14.8 km/h 84 % 0 mm
12:59 11.4 °C 8.1 °C 1009 hPa North 25.9 km/h 18.5 km/h 80 % 0 mm
13:04 11.4 °C 8.1 °C 1009 hPa NW 22.2 km/h 18.8 km/h 80 % 0 mm
13:09 11.2 °C 7.9 °C 1008.7 hPa North 31.5 km/h 19.2 km/h 80 % 0.25 mm
13:14 11.1 °C 7.6 °C 1008.7 hPa North 27.8 km/h 18.3 km/h 79 % 0.25 mm
13:19 11.1 °C 7.7 °C 1008.7 hPa NW 24.1 km/h 18.7 km/h 80 % 0.25 mm
13:24 11 °C 7.9 °C 1008.7 hPa NW 20.4 km/h 12.9 km/h 81 % 0.25 mm
13:29 11.1 °C 7.9 °C 1008.7 hPa North 27.8 km/h 16.9 km/h 81 % 0.25 mm
13:34 11.4 °C 8.1 °C 1008.4 hPa NNW 29.6 km/h 18.3 km/h 80 % 0.25 mm
13:39 11.6 °C 7.8 °C 1008.4 hPa North 22.5 km/h 22 km/h 78 % 0.25 mm
13:44 11.6 °C 7.7 °C 1008.4 hPa NW 38.9 km/h 26.4 km/h 77 % 0.25 mm
13:49 11.1 °C 7.6 °C 1008.4 hPa North 25.9 km/h 15.1 km/h 79 % 0.25 mm
13:54 10.7 °C 7.8 °C 1008 hPa NW 29.6 km/h 15.8 km/h 82 % 0.25 mm
13:59 10.7 °C 7.9 °C 1008 hPa NW 29.6 km/h 16.9 km/h 83 % 0.25 mm
14:04 10.8 °C 8.2 °C 1008 hPa NW 29 km/h 19.2 km/h 84 % 0.25 mm
14:09 11.3 °C 8.5 °C 1008 hPa NW 27.8 km/h 15.6 km/h 83 % 0 mm
14:14 11.6 °C 8.4 °C 1008 hPa North 31.5 km/h 19.5 km/h 81 % 0 mm
14:19 11.5 °C 8.2 °C 1008 hPa North 31.5 km/h 23.3 km/h 80 % 0 mm
14:24 11.3 °C 7.9 °C 1007.7 hPa NNW 37 km/h 27 km/h 80 % 0 mm
14:29 11.4 °C 7.7 °C 1008 hPa North 31.5 km/h 20.8 km/h 78 % 0 mm
14:34 11.8 °C 7.7 °C 1008 hPa North 31.5 km/h 22.9 km/h 76 % 0 mm
14:39 11.9 °C 7.8 °C 1007.7 hPa NW 20.9 km/h 14.3 km/h 76 % 0 mm
14:44 11.9 °C 7.4 °C 1007.7 hPa NW 31.5 km/h 25.3 km/h 74 % 0 mm
14:49 12.1 °C 7.2 °C 1008 hPa NNW 27.4 km/h 16.6 km/h 72 % 0 mm
14:54 12.3 °C 6.9 °C 1008 hPa North 35.4 km/h 20.1 km/h 70 % 0 mm
14:59 12.1 °C 6.8 °C 1008.4 hPa NW 29.6 km/h 22 km/h 70 % 0 mm
15:04 11.9 °C 7 °C 1008.4 hPa NW 31.5 km/h 23.2 km/h 72 % 0 mm
15:09 11.5 °C 7.2 °C 1008.4 hPa North 33.3 km/h 23 km/h 75 % 0 mm
15:14 11.2 °C 7.3 °C 1008.7 hPa NW 33.3 km/h 30.7 km/h 77 % 0.25 mm
15:19 11.1 °C 7.2 °C 1008.4 hPa North 31.5 km/h 20.1 km/h 77 % 0.25 mm
15:24 11.1 °C 7.4 °C 1008.4 hPa NW 40.7 km/h 26.9 km/h 78 % 0.25 mm
15:29 11.1 °C 7.6 °C 1008.4 hPa NW 31.5 km/h 13.8 km/h 79 % 0.25 mm
15:34 11.2 °C 7.7 °C 1008.4 hPa NW 31.5 km/h 17.1 km/h 79 % 0.25 mm
15:39 11.6 °C 7.8 °C 1008.4 hPa NW 18.5 km/h 15.1 km/h 78 % 0.25 mm
15:44 11.8 °C 7.9 °C 1008.4 hPa North 24.1 km/h 12.9 km/h 77 % 0.25 mm
15:49 12.2 °C 7.9 °C 1008.4 hPa North 25.9 km/h 16.6 km/h 75 % 0.25 mm
15:54 12.1 °C 7.6 °C 1008 hPa North 20.4 km/h 19.5 km/h 74 % 0.25 mm
15:59 11.9 °C 7.6 °C 1008.4 hPa NNW 29.6 km/h 18.7 km/h 75 % 0.25 mm
16:04 11.7 °C 7.6 °C 1008.4 hPa NW 31.5 km/h 13.8 km/h 76 % 0.25 mm
16:09 11.7 °C 7.8 °C 1008.4 hPa NW 18.5 km/h 17.9 km/h 77 % 0.25 mm
16:14 11.5 °C 7.8 °C 1008.4 hPa NNW 24.1 km/h 18 km/h 78 % 0 mm
16:19 11.3 °C 7.9 °C 1008.7 hPa NW 31.5 km/h 19.5 km/h 80 % 0 mm
16:24 10.8 °C 8 °C 1008.4 hPa NNW 24.1 km/h 19.3 km/h 83 % 0 mm
16:29 10.6 °C 8.1 °C 1008.4 hPa NNW 25.7 km/h 14.6 km/h 85 % 0 mm
16:34 10.4 °C 8.2 °C 1008.4 hPa North 25.9 km/h 15.8 km/h 86 % 0.25 mm
16:39 10.3 °C 8.1 °C 1009.4 hPa North 37 km/h 21.9 km/h 86 % 0.51 mm
16:44 9.9 °C 7.3 °C 1009 hPa North 33.3 km/h 20.9 km/h 84 % 0.76 mm
16:49 9.4 °C 7.1 °C 1009 hPa North 20.4 km/h 15.6 km/h 85 % 0.76 mm
16:54 9.3 °C 7.2 °C 1009 hPa WNW 18.5 km/h 11.4 km/h 87 % 0.76 mm
16:59 9.4 °C 7.4 °C 1009 hPa WNW 25.9 km/h 16.7 km/h 87 % 0.76 mm
17:04 9.8 °C 7.6 °C 1009 hPa WNW 16.1 km/h 9.5 km/h 86 % 0.76 mm
17:09 10 °C 7.8 °C 1009 hPa WNW 24.1 km/h 19.2 km/h 86 % 1.02 mm
17:14 10.1 °C 7.7 °C 1009.4 hPa West 16.7 km/h 12.6 km/h 85 % 1.52 mm
17:19 9.9 °C 7.7 °C 1009.4 hPa West 7.4 km/h 6.6 km/h 86 % 2.03 mm
17:24 9.7 °C 7.6 °C 1009.4 hPa West 12.9 km/h 10 km/h 87 % 2.54 mm
17:29 9.5 °C 7.4 °C 1009.7 hPa North 11.3 km/h 6.6 km/h 87 % 3.05 mm
17:34 9.5 °C 7.8 °C 1009.7 hPa West 9.3 km/h 6.6 km/h 89 % 3.3 mm
17:39 9.6 °C 7.8 °C 1009.7 hPa North 16.7 km/h 10.6 km/h 89 % 3.3 mm
17:44 9.5 °C 7.8 °C 1009.7 hPa West 18.5 km/h 13.8 km/h 89 % 2.79 mm
17:49 9.4 °C 7.7 °C 1009.7 hPa WNW 18.5 km/h 14.8 km/h 89 % 2.79 mm
17:54 9.6 °C 7.5 °C 1009.7 hPa WNW 25.9 km/h 19.5 km/h 87 % 2.79 mm
17:59 9.6 °C 7.4 °C 1009.7 hPa WNW 14.8 km/h 10.3 km/h 86 % 2.79 mm
18:04 9.6 °C 7.3 °C 1009.7 hPa WNW 18.5 km/h 15.8 km/h 86 % 2.79 mm
18:09 9.6 °C 7.3 °C 1010 hPa NW 20.9 km/h 13.7 km/h 86 % 2.54 mm
18:14 9.6 °C 7.2 °C 1010 hPa WNW 16.7 km/h 10 km/h 85 % 2.29 mm
18:19 9.6 °C 7.2 °C 1010 hPa NW 20.9 km/h 19.2 km/h 85 % 1.52 mm
18:24 9.8 °C 7.3 °C 1010.4 hPa WNW 25.9 km/h 16.7 km/h 84 % 1.02 mm
18:29 9.9 °C 7.1 °C 1010.4 hPa West 18.5 km/h 13.8 km/h 83 % 0.51 mm
18:34 9.7 °C 7.2 °C 1010.4 hPa WNW 16.7 km/h 11.7 km/h 84 % 0.25 mm
18:39 9.6 °C 7.2 °C 1010.4 hPa WNW 14.8 km/h 11.7 km/h 85 % 0.25 mm
18:44 9.4 °C 7.3 °C 1010.7 hPa North 24.1 km/h 14 km/h 87 % 0.76 mm
18:49 9.2 °C 7.3 °C 1010.7 hPa WNW 22.2 km/h 15.3 km/h 88 % 0.76 mm
18:54 9.2 °C 7.2 °C 1010.7 hPa West 31.5 km/h 21.1 km/h 87 % 0.76 mm
18:59 9.3 °C 6.8 °C 1010.4 hPa WNW 25.9 km/h 17.7 km/h 84 % 0.76 mm
19:04 9.3 °C 6.2 °C 1010.7 hPa West 31.5 km/h 20 km/h 81 % 0.76 mm
19:09 9.3 °C 5.9 °C 1010.7 hPa West 24.1 km/h 19.2 km/h 79 % 0.76 mm
19:14 9.4 °C 5.4 °C 1010.7 hPa North 22.2 km/h 17.5 km/h 76 % 0.76 mm
19:19 9.6 °C 5.2 °C 1010.7 hPa West 27.8 km/h 18.2 km/h 74 % 0.76 mm
19:24 9.6 °C 4.9 °C 1010.7 hPa West 20.4 km/h 15.1 km/h 73 % 0.76 mm
19:29 9.6 °C 5 °C 1010.7 hPa West 18.5 km/h 13.8 km/h 73 % 0.76 mm
19:34 9.7 °C 4.8 °C 1010.7 hPa WSW 25.9 km/h 18.2 km/h 72 % 0.76 mm
19:39 9.7 °C 4.9 °C 1010.7 hPa West 16.7 km/h 11.1 km/h 72 % 0.51 mm
19:44 9.7 °C 4.8 °C 1011.1 hPa WSW 20.4 km/h 13.8 km/h 72 % 0 mm
19:49 9.7 °C 4.9 °C 1010.7 hPa WSW 18.5 km/h 13.7 km/h 72 % 0 mm
19:54 9.9 °C 4.9 °C 1011.1 hPa West 25.9 km/h 15.6 km/h 71 % 0 mm
19:59 10.1 °C 4.9 °C 1011.1 hPa WNW 37 km/h 17.2 km/h 70 % 0 mm
20:04 10.1 °C 4.9 °C 1011.1 hPa West 27.8 km/h 19.6 km/h 70 % 0 mm
20:09 10.1 °C 5.1 °C 1011.1 hPa West 27.4 km/h 25.6 km/h 71 % 0 mm
20:14 10.3 °C 5.1 °C 1011.1 hPa WNW 17.7 km/h 15 km/h 70 % 0 mm
20:19 10.4 °C 4.9 °C 1011.1 hPa West 31.5 km/h 13.2 km/h 69 % 0 mm
20:24 10.2 °C 5.2 °C 1011.4 hPa West 18.5 km/h 10.9 km/h 71 % 0 mm
20:29 10.1 °C 5.3 °C 1011.4 hPa WNW 20.4 km/h 17.1 km/h 72 % 0 mm
20:34 10.2 °C 5.4 °C 1011.4 hPa WNW 22.2 km/h 22.2 km/h 72 % 0 mm
20:39 10.2 °C 5.6 °C 1011.4 hPa West 18.5 km/h 15.9 km/h 73 % 0 mm
20:44 9.9 °C 5.7 °C 1011.7 hPa West 27.8 km/h 15.6 km/h 75 % 0 mm
20:49 9.7 °C 5.8 °C 1011.4 hPa West 18.5 km/h 14.2 km/h 77 % 0 mm
20:54 9.5 °C 5.8 °C 1011.4 hPa North 20.4 km/h 20 km/h 78 % 0 mm
20:59 9.4 °C 5.9 °C 1011.7 hPa North 18.5 km/h 13 km/h 79 % 0 mm
21:04 9.6 °C 5.9 °C 1011.4 hPa WNW 35.2 km/h 24.6 km/h 78 % 0 mm
21:09 9.8 °C 5.9 °C 1011.4 hPa WNW 20.9 km/h 15.4 km/h 77 % 0 mm
21:14 9.8 °C 5.7 °C 1011.4 hPa WNW 30.6 km/h 20.1 km/h 76 % 0 mm
21:19 9.8 °C 5.7 °C 1011.7 hPa West 20.4 km/h 13.8 km/h 76 % 0 mm
21:24 9.7 °C 5.5 °C 1011.7 hPa West 20.9 km/h 17.7 km/h 75 % 0 mm
21:29 9.7 °C 5.4 °C 1011.7 hPa West 13 km/h 9 km/h 75 % 0 mm
21:34 9.6 °C 4.8 °C 1012.1 hPa WSW 24.1 km/h 13.2 km/h 72 % 0 mm
21:39 9.7 °C 4.8 °C 1012.1 hPa WSW 18.5 km/h 5.1 km/h 72 % 0 mm
21:44 9.7 °C 4.9 °C 1012.1 hPa WSW 18.5 km/h 11.6 km/h 72 % 0 mm
21:49 9.8 °C 5 °C 1012.4 hPa West 27.8 km/h 14.2 km/h 72 % 0 mm
21:54 9.8 °C 4.8 °C 1012.4 hPa WSW 18.5 km/h 9.8 km/h 71 % 0 mm
21:59 9.8 °C 4.8 °C 1012.4 hPa WSW 18.5 km/h 14.2 km/h 71 % 0 mm
22:04 9.7 °C 4.4 °C 1012.8 hPa West 22.2 km/h 14.8 km/h 70 % 0 mm
22:09 9.6 °C 4.4 °C 1012.8 hPa West 33.8 km/h 20.4 km/h 70 % 0 mm
22:14 9.8 °C 4.2 °C 1012.8 hPa West 31.5 km/h 20.1 km/h 68 % 0 mm
22:19 9.7 °C 4.1 °C 1012.8 hPa WNW 22.2 km/h 15.6 km/h 68 % 0 mm
22:24 9.6 °C 4.2 °C 1012.8 hPa West 20.4 km/h 14.8 km/h 69 % 0 mm
22:29 9.5 °C 4.3 °C 1012.8 hPa West 25.9 km/h 13.8 km/h 70 % 0 mm
22:34 9.4 °C 4.2 °C 1012.8 hPa WNW 18.5 km/h 8.2 km/h 70 % 0 mm
22:39 9.3 °C 4.3 °C 1012.8 hPa West 14.5 km/h 12.7 km/h 71 % 0 mm
22:44 9.3 °C 4.3 °C 1013.1 hPa WNW 11.1 km/h 6.6 km/h 71 % 0 mm
22:49 9.2 °C 4.4 °C 1013.1 hPa WNW 14.8 km/h 4.7 km/h 72 % 0 mm
22:54 9.2 °C 4.4 °C 1013.1 hPa WNW 9.7 km/h 5 km/h 72 % 0 mm
22:59 9.1 °C 4.5 °C 1013.4 hPa WNW 14.8 km/h 6.6 km/h 73 % 0 mm
23:04 9.2 °C 4.4 °C 1013.4 hPa WNW 13 km/h 7.2 km/h 72 % 0 mm
23:09 9.2 °C 4.4 °C 1013.4 hPa WNW 5.6 km/h 0.2 km/h 72 % 0 mm
23:14 9.2 °C 4.4 °C 1013.8 hPa WNW 5.6 km/h 2.9 km/h 72 % 0 mm
23:19 9.2 °C 4.6 °C 1013.8 hPa WNW 3.7 km/h 1.1 km/h 73 % 0 mm
23:24 9.1 °C 4.5 °C 1013.8 hPa WNW 9.3 km/h 2.4 km/h 73 % 0 mm
23:29 9.1 °C 4.7 °C 1013.8 hPa WNW 3.7 km/h 0.5 km/h 74 % 0 mm
23:34 9.2 °C 4.8 °C 1013.8 hPa WNW 6.4 km/h 3.2 km/h 74 % 0 mm
23:39 9.3 °C 4.7 °C 1013.8 hPa WNW 5.6 km/h 2.9 km/h 73 % 0 mm
23:44 9.3 °C 4.7 °C 1014.1 hPa Calm     73 % 0 mm
23:49 9.3 °C 4.7 °C 1014.1 hPa WNW 1.9 km/h 1 km/h 73 % 0 mm
23:54 9.2 °C 4.8 °C 1014.1 hPa WNW 5.6 km/h   74 % 0 mm
23:59 9.1 °C 4.7 °C 1014.1 hPa WNW 3.7 km/h 1.6 km/h 74 % 0 mm
Ararat Weather
Compliments of Weather Underground - 2.25 mb
Click here to send mail.


ABOUT

Live weather data from Ararat, Victoria, Australia, 3377
Data uploaded from Cumulus every 5 minutes to Weather Underground.
This site then downloads the raw data for formatting and display.
Metric and imperial data can be displayed. Graphs and historical data available.
Includes Sun and Moon times and rain image live from BOM.

Check out Ararat Weather on Facebook, Twitter and Google +

Help support ongoing costs by checking out the ads





Follow @AraratWeather